Time;durP1;ratioP1;P1;durP2;ratioP2;P2;SDS_P1;SDS_P2;PMS_P1;PMS_P2;Temp;Humidity;BMP_temperature;BMP_pressure;BME280_temperature;BME280_humidity;BME280_pressure;Samples;Min_cycle;Max_cycle;Signal;HPM_P1;HPM_P2
2024/01/02 00:01:01;;;;;;;3.40;1.60;;;;;;;10.63;48.59;96810.22;5063743;28;20277;-69
2024/01/02 00:03:27;;;;;;;3.63;1.30;;;;;;;10.60;48.07;96808.75;5043799;28;20229;-70
2024/01/02 00:05:52;;;;;;;6.50;1.37;;;;;;;10.58;48.21;96789.75;5067783;28;20255;-70
2024/01/02 00:08:18;;;;;;;5.43;2.27;;;;;;;10.68;48.37;96794.84;5058557;28;20257;-71
2024/01/02 00:10:43;;;;;;;2.50;1.17;;;;;;;10.62;48.41;96790.25;5062264;28;20650;-70
2024/01/02 00:13:08;;;;;;;3.90;1.40;;;;;;;10.52;48.43;96788.59;5059680;28;20716;-69
2024/01/02 00:15:34;;;;;;;6.77;1.57;;;;;;;10.64;48.29;96789.13;5073263;28;20561;-70
2024/01/02 00:17:59;;;;;;;1.83;1.10;;;;;;;10.75;48.42;96772.22;5073294;28;20245;-71
2024/01/02 00:20:25;;;;;;;6.63;2.33;;;;;;;10.73;48.17;96768.94;5063454;28;20208;-70
2024/01/02 00:22:50;;;;;;;2.30;0.90;;;;;;;10.72;48.12;96767.31;5054238;28;20707;-69
2024/01/02 00:25:16;;;;;;;6.60;1.30;;;;;;;10.80;48.04;96764.72;5079215;28;20197;-70
2024/01/02 00:27:41;;;;;;;2.90;1.20;;;;;;;10.84;48.01;96766.00;5072621;28;20214;-70
2024/01/02 00:30:07;;;;;;;3.43;1.20;;;;;;;10.86;48.09;96758.78;5077210;28;20209;-71
2024/01/02 00:32:33;;;;;;;4.10;1.13;;;;;;;10.91;47.95;96756.50;5077458;28;20190;-71
2024/01/02 00:34:59;;;;;;;6.97;1.17;;;;;;;10.89;47.87;96739.31;5072560;28;20647;-70
2024/01/02 00:37:24;;;;;;;2.20;0.80;;;;;;;10.74;48.29;96739.97;5080152;28;20468;-70
2024/01/02 00:39:50;;;;;;;2.70;1.00;;;;;;;10.68;48.43;96738.00;5064500;28;20190;-71
2024/01/02 00:42:15;;;;;;;2.30;1.00;;;;;;;10.74;48.31;96750.47;5070271;28;20272;-70
2024/01/02 00:44:41;;;;;;;4.43;1.23;;;;;;;10.73;48.41;96742.75;5069138;28;20187;-69
2024/01/02 00:47:07;;;;;;;5.97;1.17;;;;;;;10.72;48.35;96735.84;5059378;28;20214;-70
2024/01/02 00:49:33;;;;;;;3.23;0.93;;;;;;;10.68;48.55;96726.72;5047427;28;20191;-69
2024/01/02 00:51:58;;;;;;;2.30;1.20;;;;;;;10.80;48.46;96717.53;5076197;28;20936;-72
2024/01/02 00:54:23;;;;;;;4.10;0.80;;;;;;;10.81;48.35;96719.16;5059280;28;20245;-70
2024/01/02 00:56:49;;;;;;;3.67;0.93;;;;;;;10.70;48.61;96716.88;5071524;28;20274;-68
2024/01/02 00:59:14;;;;;;;3.33;0.93;;;;;;;10.80;48.46;96712.28;5064574;28;20308;-70
2024/01/02 01:01:40;;;;;;;2.97;1.13;;;;;;;10.83;48.08;96709.34;5068411;28;20201;-69
2024/01/02 01:04:07;;;;;;;3.67;1.07;;;;;;;10.86;48.07;96701.13;5065800;28;20202;-69
2024/01/02 01:06:33;;;;;;;3.03;1.20;;;;;;;10.95;48.07;96698.50;5073948;28;20722;-70
2024/01/02 01:08:58;;;;;;;2.87;1.00;;;;;;;10.97;47.90;96696.50;5073323;28;20512;-70
2024/01/02 01:11:24;;;;;;;2.30;0.90;;;;;;;11.03;47.82;96696.66;5080391;28;20220;-70
2024/01/02 01:13:49;;;;;;;2.73;1.03;;;;;;;10.89;48.20;96695.56;5072402;28;20644;-72
2024/01/02 01:16:15;;;;;;;4.77;1.10;;;;;;;10.98;47.75;96688.50;5067749;28;20272;-70
2024/01/02 01:18:40;;;;;;;5.53;1.47;;;;;;;10.95;47.74;96694.06;5053756;28;20217;-69
2024/01/02 01:21:06;;;;;;;2.20;1.27;;;;;;;11.00;47.72;96696.19;5067054;28;20285;-69
2024/01/02 01:23:31;;;;;;;1.37;0.80;;;;;;;10.88;47.82;96677.38;5048668;28;20194;-67
2024/01/02 01:25:57;;;;;;;3.23;0.93;;;;;;;10.65;47.94;96683.28;5047544;28;20186;-68
2024/01/02 01:28:22;;;;;;;2.80;1.83;;;;;;;10.67;48.45;96678.69;5066955;28;20821;-68
2024/01/02 01:30:48;;;;;;;2.50;1.00;;;;;;;10.82;48.47;96678.88;5065973;28;20222;-67
2024/01/02 01:33:13;;;;;;;7.30;1.27;;;;;;;10.86;48.32;96669.66;5062709;28;20225;-70
2024/01/02 01:35:39;;;;;;;2.17;1.00;;;;;;;10.83;48.44;96667.41;5051945;28;20306;-70
2024/01/02 01:38:04;;;;;;;2.17;0.90;;;;;;;10.90;47.96;96667.50;5075684;28;20217;-68
2024/01/02 01:40:30;;;;;;;2.50;0.80;;;;;;;10.88;48.07;96659.03;5074958;28;20725;-69
2024/01/02 01:42:55;;;;;;;1.57;0.80;;;;;;;10.81;48.13;96666.75;5080098;28;20636;-68
2024/01/02 01:45:20;;;;;;;1.50;0.80;;;;;;;10.88;48.17;96662.44;5075844;28;20221;-69
2024/01/02 01:47:46;;;;;;;1.90;1.10;;;;;;;10.93;48.38;96659.31;5064167;28;20335;-68
2024/01/02 01:50:12;;;;;;;1.83;0.90;;;;;;;10.70;48.56;96653.97;5079072;28;20197;-69
2024/01/02 01:52:38;;;;;;;1.80;0.80;;;;;;;10.75;48.63;96657.75;5067612;28;20232;-69
2024/01/02 01:55:04;;;;;;;2.40;0.87;;;;;;;10.74;48.57;96647.41;5045100;28;20190;-69
2024/01/02 01:57:30;;;;;;;3.83;1.10;;;;;;;10.86;48.31;96643.44;5061941;28;21002;-70
2024/01/02 01:59:55;;;;;;;1.67;0.80;;;;;;;10.83;48.51;96641.19;5052851;28;20436;-68
2024/01/02 02:02:21;;;;;;;3.57;0.97;;;;;;;10.82;48.46;96639.53;5077303;28;20193;-69
2024/01/02 02:04:49;;;;;;;5.40;1.13;;;;;;;10.93;48.38;96633.09;5047022;28;20209;-68
2024/01/02 02:07:15;;;;;;;3.00;1.17;;;;;;;10.94;48.34;96626.06;5073114;28;20206;-68
2024/01/02 02:09:40;;;;;;;1.50;0.90;;;;;;;10.90;48.38;96631.66;5083859;28;20477;-69
2024/01/02 02:12:06;;;;;;;2.00;0.93;;;;;;;10.76;48.60;96621.84;5066490;28;20205;-69
2024/01/02 02:14:32;;;;;;;2.10;1.10;;;;;;;10.87;48.75;96626.72;5059101;28;20193;-69
2024/01/02 02:16:57;;;;;;;1.50;0.80;;;;;;;10.95;48.56;96619.84;5072302;28;20511;-68
2024/01/02 02:19:23;;;;;;;1.37;0.80;;;;;;;10.98;48.42;96616.88;5037667;28;20205;-68
2024/01/02 02:21:51;;;;;;;2.13;0.97;;;;;;;10.95;48.23;96619.84;5055310;28;20276;-69
2024/01/02 02:24:18;;;;;;;1.67;0.90;;;;;;;10.92;48.77;96615.75;5050802;28;20428;-69
2024/01/02 02:26:43;;;;;;;1.73;0.73;;;;;;;10.87;48.71;96602.34;5073091;28;20503;-69
2024/01/02 02:29:09;;;;;;;1.47;0.90;;;;;;;10.89;49.01;96600.38;5061059;28;20430;-69
2024/01/02 02:31:34;;;;;;;2.00;0.80;;;;;;;10.77;49.26;96594.66;5068476;28;20665;-68
2024/01/02 02:34:00;;;;;;;1.90;0.90;;;;;;;10.63;49.48;96579.63;5071213;28;20282;-68
2024/01/02 02:36:25;;;;;;;2.80;1.00;;;;;;;10.79;49.75;96587.44;5066301;28;20221;-70
2024/01/02 02:38:51;;;;;;;2.93;1.03;;;;;;;10.83;50.06;96574.81;5062039;28;21944;-69
2024/01/02 02:41:16;;;;;;;1.37;0.90;;;;;;;10.87;50.10;96579.56;5073087;28;20250;-70
2024/01/02 02:43:42;;;;;;;1.83;0.70;;;;;;;10.86;50.28;96558.75;5080872;28;20191;-69
2024/01/02 02:46:07;;;;;;;4.50;1.00;;;;;;;10.86;50.46;96553.50;5069225;28;20758;-70
2024/01/02 02:48:32;;;;;;;3.13;1.00;;;;;;;10.71;51.52;96553.41;5074682;28;20685;-70
2024/01/02 02:50:58;;;;;;;1.23;0.80;;;;;;;10.82;51.42;96549.59;5047009;28;20193;-69
2024/01/02 02:53:23;;;;;;;1.43;0.73;;;;;;;10.64;51.34;96542.78;5079518;28;20209;-69
2024/01/02 02:55:49;;;;;;;4.47;0.90;;;;;;;10.60;51.73;96538.88;5070656;28;20276;-69
2024/01/02 02:58:14;;;;;;;0.90;0.60;;;;;;;10.70;51.87;96530.81;5059047;28;20719;-70
2024/01/02 03:00:40;;;;;;;1.83;1.07;;;;;;;10.73;52.19;96527.81;5075166;28;20208;-70
2024/01/02 03:03:05;;;;;;;1.60;0.80;;;;;;;10.65;52.29;96527.88;5068612;28;20286;-70
2024/01/02 03:05:31;;;;;;;2.53;1.10;;;;;;;10.61;52.69;96522.16;5045719;28;20202;-70
2024/01/02 03:07:57;;;;;;;1.60;0.80;;;;;;;10.71;52.67;96511.47;5071429;28;20292;-69
2024/01/02 03:10:24;;;;;;;2.27;0.80;;;;;;;10.64;52.91;96506.09;5069436;28;20204;-69
2024/01/02 03:12:49;;;;;;;3.17;0.80;;;;;;;10.68;52.82;96503.94;5070001;28;20524;-70
2024/01/02 03:15:15;;;;;;;1.10;0.70;;;;;;;10.63;53.29;96498.41;5056587;28;20417;-70
2024/01/02 03:17:40;;;;;;;1.07;0.90;;;;;;;10.48;53.71;96493.06;5067623;28;20211;-69
2024/01/02 03:20:07;;;;;;;1.10;0.63;;;;;;;10.38;54.30;96477.53;5040210;28;20600;-69
2024/01/02 03:22:32;;;;;;;3.53;0.83;;;;;;;10.41;54.47;96475.38;5061710;28;20195;-70
2024/01/02 03:24:57;;;;;;;1.57;0.80;;;;;;;10.28;54.93;96469.81;5063126;28;20424;-69
2024/01/02 03:27:23;;;;;;;1.80;0.80;;;;;;;10.40;54.69;96465.06;5077448;28;20266;-69
2024/01/02 03:29:48;;;;;;;3.30;0.90;;;;;;;10.32;55.13;96450.16;5072140;28;20201;-70
2024/01/02 03:32:14;;;;;;;3.43;0.87;;;;;;;10.22;55.15;96442.50;5063459;28;20205;-69
2024/01/02 03:34:40;;;;;;;2.00;0.80;;;;;;;10.26;55.77;96451.66;5053206;28;20601;-69
2024/01/02 03:37:05;;;;;;;1.37;0.80;;;;;;;10.35;55.86;96431.50;5051543;28;20206;-71
2024/01/02 03:39:31;;;;;;;0.90;0.70;;;;;;;10.22;56.16;96424.16;5068049;28;20198;-68
2024/01/02 03:41:56;;;;;;;1.80;0.80;;;;;;;10.32;56.12;96433.66;5077990;28;20198;-70
2024/01/02 03:44:21;;;;;;;1.30;0.83;;;;;;;10.05;57.18;96420.00;5065916;28;20190;-70
2024/01/02 03:46:47;;;;;;;1.00;0.73;;;;;;;10.08;56.74;96406.56;5067219;28;20688;-70
2024/01/02 03:49:12;;;;;;;2.60;0.90;;;;;;;10.12;57.46;96407.84;5075389;28;20675;-70
2024/01/02 03:51:39;;;;;;;0.90;0.60;;;;;;;10.12;57.45;96398.22;5042190;28;20685;-69
2024/01/02 03:54:05;;;;;;;1.00;0.70;;;;;;;10.25;57.38;96409.94;5066299;28;20193;-70
2024/01/02 03:56:30;;;;;;;1.90;0.70;;;;;;;10.08;57.93;96394.28;5059159;28;20855;-70
2024/01/02 03:58:56;;;;;;;1.10;0.60;;;;;;;10.06;58.00;96401.50;5077744;28;20289;-69
2024/01/02 04:01:21;;;;;;;1.23;0.80;;;;;;;10.08;58.60;96388.25;5066174;28;20342;-69
2024/01/02 04:03:47;;;;;;;1.00;0.60;;;;;;;9.92;58.83;96378.63;5070599;28;20277;-70
2024/01/02 04:06:12;;;;;;;2.03;0.80;;;;;;;10.01;58.23;96375.00;5040867;28;20257;-71
2024/01/02 04:08:38;;;;;;;0.80;0.60;;;;;;;10.19;58.20;96380.03;5040443;28;20183;-69
2024/01/02 04:11:04;;;;;;;0.90;0.60;;;;;;;10.20;58.29;96363.31;5077181;28;20280;-69
2024/01/02 04:13:30;;;;;;;0.90;0.60;;;;;;;10.08;58.45;96369.94;5066916;28;20189;-71
2024/01/02 04:15:55;;;;;;;1.00;0.70;;;;;;;10.17;58.14;96355.81;5068946;28;20445;-69
2024/01/02 04:18:21;;;;;;;1.27;0.60;;;;;;;10.04;58.75;96373.84;5066682;28;20480;-69
2024/01/02 04:20:46;;;;;;;1.97;0.70;;;;;;;9.89;59.21;96366.69;5066992;28;20196;-69
2024/01/02 04:23:12;;;;;;;0.97;0.60;;;;;;;9.91;59.01;96367.34;5065056;28;20228;-70
2024/01/02 04:25:37;;;;;;;1.50;0.70;;;;;;;10.02;59.29;96357.50;5062430;28;20666;-69
2024/01/02 04:28:03;;;;;;;1.37;0.70;;;;;;;10.00;59.19;96341.97;5069373;28;20241;-70
2024/01/02 04:30:28;;;;;;;2.47;0.60;;;;;;;9.99;59.75;96342.94;5054701;28;20191;-68
2024/01/02 04:32:54;;;;;;;2.30;0.70;;;;;;;10.04;59.41;96335.38;5062726;28;20486;-69
2024/01/02 04:35:19;;;;;;;0.90;0.60;;;;;;;10.04;59.63;96329.34;5056055;28;20282;-68
2024/01/02 04:37:45;;;;;;;0.83;0.60;;;;;;;9.99;59.21;96316.78;5066162;28;20353;-69
2024/01/02 04:40:11;;;;;;;1.10;0.53;;;;;;;9.91;59.89;96317.63;5057459;28;20243;-71
2024/01/02 04:42:37;;;;;;;1.10;0.70;;;;;;;9.65;61.01;96315.25;5063758;28;20668;-69
2024/01/02 04:45:03;;;;;;;2.43;0.63;;;;;;;9.85;60.52;96320.91;5061603;28;20436;-68
2024/01/02 04:47:29;;;;;;;0.90;0.70;;;;;;;9.68;61.02;96310.50;5064072;28;20463;-69
2024/01/02 04:49:55;;;;;;;4.20;0.70;;;;;;;9.60;61.06;96305.28;5045480;28;20429;-69
2024/01/02 04:52:20;;;;;;;0.90;0.60;;;;;;;9.77;61.09;96302.63;5069312;28;20277;-70
2024/01/02 04:54:46;;;;;;;1.10;0.70;;;;;;;9.73;60.92;96291.69;5062906;28;20270;-68
2024/01/02 04:57:12;;;;;;;4.40;0.60;;;;;;;9.68;60.95;96294.81;5033820;28;20210;-69
2024/01/02 04:59:38;;;;;;;2.30;0.93;;;;;;;9.56;61.33;96288.31;5059857;28;20659;-69
2024/01/02 05:02:03;;;;;;;1.40;0.70;;;;;;;9.46;61.60;96278.03;5048263;28;20556;-68
2024/01/02 05:04:29;;;;;;;2.30;0.77;;;;;;;9.41;61.39;96279.53;5064509;28;20183;-68
2024/01/02 05:06:55;;;;;;;1.17;0.73;;;;;;;9.57;61.58;96268.19;5043211;28;20275;-69
2024/01/02 05:09:20;;;;;;;3.67;1.00;;;;;;;9.75;61.29;96262.72;5064671;28;20183;-69
2024/01/02 05:11:48;;;;;;;1.20;0.87;;;;;;;9.68;61.18;96265.19;5060241;28;20445;-69
2024/01/02 05:14:17;;;;;;;1.10;0.77;;;;;;;9.53;62.07;96238.94;5059368;28;20191;-71
2024/01/02 05:16:42;;;;;;;1.73;0.80;;;;;;;9.59;61.96;96253.16;5043685;28;20976;-69
2024/01/02 05:19:08;;;;;;;1.57;0.70;;;;;;;9.53;62.16;96255.44;5036018;28;20468;-69
2024/01/02 05:21:33;;;;;;;1.40;0.70;;;;;;;9.55;62.49;96239.59;5076151;28;20280;-70
2024/01/02 05:23:59;;;;;;;1.40;0.93;;;;;;;9.49;62.28;96248.09;5066331;28;20278;-70
2024/01/02 05:26:24;;;;;;;1.30;1.00;;;;;;;9.43;62.58;96238.34;5079718;28;20346;-70
2024/01/02 05:28:50;;;;;;;1.63;0.70;;;;;;;9.53;62.81;96231.09;5076242;28;20193;-69
2024/01/02 05:31:15;;;;;;;2.23;0.90;;;;;;;9.49;62.88;96227.19;5061419;28;20276;-69
2024/01/02 05:33:41;;;;;;;2.47;0.87;;;;;;;9.53;63.08;96223.25;5071409;28;20312;-68
2024/01/02 05:36:06;;;;;;;2.37;0.80;;;;;;;9.70;62.65;96228.44;5059394;28;20707;-69
2024/01/02 05:38:32;;;;;;;1.37;0.77;;;;;;;9.52;62.96;96221.63;5071366;28;20209;-70
2024/01/02 05:40:57;;;;;;;1.43;0.80;;;;;;;9.65;62.63;96214.03;5069251;28;20319;-69
2024/01/02 05:43:22;;;;;;;1.60;0.90;;;;;;;9.68;62.48;96225.97;5071252;28;20250;-70
2024/01/02 05:45:48;;;;;;;1.67;1.00;;;;;;;9.62;62.74;96230.06;5065263;28;20282;-67
2024/01/02 05:48:13;;;;;;;0.80;0.67;;;;;;;9.63;62.91;96217.81;5044206;28;20201;-70
2024/01/02 05:50:39;;;;;;;1.90;1.00;;;;;;;9.71;62.43;96220.41;5066567;28;20187;-69
2024/01/02 05:53:06;;;;;;;2.73;0.93;;;;;;;9.92;61.98;96216.34;5070586;28;20419;-69
2024/01/02 05:55:31;;;;;;;4.00;1.03;;;;;;;9.79;62.11;96198.59;5071608;28;20186;-71
2024/01/02 05:57:57;;;;;;;1.57;0.90;;;;;;;9.81;61.96;96189.59;5072472;28;20576;-70
2024/01/02 06:00:22;;;;;;;1.60;0.80;;;;;;;9.72;62.49;96185.41;5074801;28;20220;-70
2024/01/02 06:02:48;;;;;;;4.80;0.97;;;;;;;9.79;62.50;96180.28;5069514;28;20232;-70
2024/01/02 06:05:15;;;;;;;3.03;0.90;;;;;;;9.66;62.98;96176.44;5054548;28;20196;-70
2024/01/02 06:07:40;;;;;;;4.40;0.80;;;;;;;9.73;62.68;96165.28;5069101;28;20290;-70
2024/01/02 06:10:06;;;;;;;1.97;0.93;;;;;;;9.77;63.05;96166.56;5060170;28;20536;-70
2024/01/02 06:12:31;;;;;;;4.13;0.87;;;;;;;9.70;63.09;96174.28;5060228;28;20226;-70
2024/01/02 06:14:57;;;;;;;1.37;0.80;;;;;;;9.62;62.68;96154.22;5067693;28;20226;-68
2024/01/02 06:17:22;;;;;;;1.50;0.90;;;;;;;9.57;62.81;96177.47;5070537;28;20293;-70
2024/01/02 06:19:48;;;;;;;0.80;0.60;;;;;;;9.76;63.03;96171.00;5061872;28;20221;-67
2024/01/02 06:22:13;;;;;;;1.93;1.00;;;;;;;9.63;63.10;96165.50;5072750;28;20236;-68
2024/01/02 06:24:39;;;;;;;0.90;0.60;;;;;;;9.87;62.29;96161.91;5059312;28;20213;-68
2024/01/02 06:27:04;;;;;;;1.00;0.70;;;;;;;9.78;62.65;96162.97;5068817;28;20278;-69
2024/01/02 06:29:29;;;;;;;1.77;0.90;;;;;;;9.72;62.70;96161.03;5069561;28;20272;-70
2024/01/02 06:31:55;;;;;;;2.80;0.80;;;;;;;9.79;62.85;96156.75;5056642;28;20270;-69
2024/01/02 06:34:20;;;;;;;1.50;0.80;;;;;;;10.01;62.32;96143.84;5068747;28;20217;-68
2024/01/02 06:36:46;;;;;;;1.73;0.80;;;;;;;10.01;62.19;96135.97;5075115;28;20245;-68
2024/01/02 06:39:11;;;;;;;1.10;0.80;;;;;;;9.84;62.40;96152.63;5068553;28;20227;-68
2024/01/02 06:41:37;;;;;;;1.10;0.90;;;;;;;9.88;62.62;96147.03;5069263;28;20241;-68
2024/01/02 06:44:02;;;;;;;1.30;1.00;;;;;;;9.84;62.65;96146.56;5068755;28;20272;-69
2024/01/02 06:46:28;;;;;;;1.30;0.77;;;;;;;9.89;62.59;96140.81;5069607;28;20266;-69
2024/01/02 06:48:53;;;;;;;1.87;1.03;;;;;;;9.84;62.50;96141.31;5074315;28;20182;-69
2024/01/02 06:51:18;;;;;;;1.20;0.90;;;;;;;9.90;62.54;96132.78;5047390;28;20214;-71
2024/01/02 06:53:44;;;;;;;1.00;0.80;;;;;;;10.04;62.16;96130.41;5070829;28;20189;-68
2024/01/02 06:56:09;;;;;;;0.90;0.70;;;;;;;10.01;62.62;96146.44;5071117;28;20291;-69
2024/01/02 06:58:36;;;;;;;1.10;1.00;;;;;;;9.92;62.73;96128.19;5078103;28;20266;-69
2024/01/02 07:01:01;;;;;;;0.93;0.70;;;;;;;9.86;62.87;96136.72;5065345;28;20548;-68
2024/01/02 07:03:27;;;;;;;1.37;0.80;;;;;;;9.82;62.94;96115.34;5066086;28;20522;-69
2024/01/02 07:05:52;;;;;;;1.20;0.80;;;;;;;9.97;62.59;96123.25;5058207;28;20194;-69
2024/01/02 07:08:18;;;;;;;1.50;0.80;;;;;;;10.00;62.66;96114.25;5059793;28;20266;-69
2024/01/02 07:10:43;;;;;;;1.00;0.77;;;;;;;9.81;63.36;96120.75;5066637;28;20194;-68
2024/01/02 07:13:09;;;;;;;2.60;0.90;;;;;;;9.99;62.71;96113.41;5057063;28;20222;-70
2024/01/02 07:15:34;;;;;;;0.80;0.60;;;;;;;9.96;63.02;96121.59;5055627;28;21102;-68
2024/01/02 07:17:59;;;;;;;0.90;0.70;;;;;;;10.00;63.04;96124.72;5062167;28;20608;-70
2024/01/02 07:20:25;;;;;;;1.00;0.63;;;;;;;10.14;62.61;96110.03;5082095;28;20209;-70
2024/01/02 07:22:50;;;;;;;1.40;0.80;;;;;;;9.98;63.11;96114.41;5061349;28;20214;-69
2024/01/02 07:25:16;;;;;;;1.50;0.80;;;;;;;10.06;63.13;96117.97;5066464;28;20218;-69
2024/01/02 07:27:42;;;;;;;1.50;0.80;;;;;;;9.78;63.90;96108.81;5065611;28;20195;-71
2024/01/02 07:30:08;;;;;;;1.10;0.80;;;;;;;9.96;63.66;96118.19;5052583;28;20186;-69
2024/01/02 07:32:34;;;;;;;1.07;0.80;;;;;;;9.95;63.75;96122.63;5070083;28;20179;-69
2024/01/02 07:35:00;;;;;;;1.00;0.90;;;;;;;10.10;63.37;96109.56;5050775;28;20431;-70
2024/01/02 07:37:25;;;;;;;1.90;1.00;;;;;;;10.10;63.29;96113.97;5060502;28;20517;-69
2024/01/02 07:39:53;;;;;;;1.00;0.90;;;;;;;10.10;63.55;96113.97;5059697;28;20561;-70
2024/01/02 07:42:19;;;;;;;3.30;0.83;;;;;;;10.18;63.38;96105.25;5072695;28;20190;-71
2024/01/02 07:44:44;;;;;;;1.60;0.90;;;;;;;10.16;63.28;96105.44;5066596;28;20428;-71
2024/01/02 07:47:10;;;;;;;1.00;0.80;;;;;;;10.18;63.53;96105.25;5073705;28;20209;-70
2024/01/02 07:49:35;;;;;;;1.20;0.70;;;;;;;10.15;63.85;96112.47;5062971;28;20320;-70
2024/01/02 07:52:01;;;;;;;0.90;0.70;;;;;;;10.21;63.48;96118.78;5074472;28;20268;-70
2024/01/02 07:54:26;;;;;;;1.00;0.70;;;;;;;10.19;63.72;96112.94;5063702;28;20674;-70
2024/01/02 07:56:52;;;;;;;2.30;0.77;;;;;;;10.10;64.00;96113.97;5067687;28;20634;-70
2024/01/02 07:59:19;;;;;;;1.10;0.80;;;;;;;10.15;64.29;96111.66;5069262;28;20221;-70
2024/01/02 08:01:47;;;;;;;2.07;1.00;;;;;;;10.38;63.52;96113.47;5048011;28;20190;-70
2024/01/02 08:04:12;;;;;;;1.03;0.80;;;;;;;10.40;63.56;96117.53;5059425;28;20466;-71
2024/01/02 08:06:38;;;;;;;1.83;0.70;;;;;;;10.48;63.46;96127.13;5061272;28;20532;-70
2024/01/02 08:09:04;;;;;;;2.73;0.87;;;;;;;10.57;63.35;96114.75;5049743;28;20182;-70
2024/01/02 08:11:29;;;;;;;1.40;0.70;;;;;;;10.30;63.90;96120.38;5022745;28;20452;-71
2024/01/02 08:13:55;;;;;;;1.97;0.70;;;;;;;10.38;64.06;96123.94;5063800;28;20199;-71
2024/01/02 08:16:20;;;;;;;0.80;0.60;;;;;;;10.27;64.20;96110.25;5064911;28;20699;-71
2024/01/02 08:18:45;;;;;;;1.20;0.60;;;;;;;10.63;63.61;96097.50;5064991;28;20201;-71
2024/01/02 08:21:11;;;;;;;1.10;0.60;;;;;;;10.66;63.45;96115.50;5062861;28;20187;-71
2024/01/02 08:23:38;;;;;;;0.90;0.70;;;;;;;10.45;63.79;96122.25;5056493;28;20190;-71
2024/01/02 08:26:06;;;;;;;0.80;0.60;;;;;;;10.67;63.42;96125.78;5063515;28;20187;-71
2024/01/02 08:28:32;;;;;;;1.00;0.70;;;;;;;10.85;63.09;96128.06;5040767;28;20449;-70
2024/01/02 08:30:57;;;;;;;1.73;0.70;;;;;;;10.80;63.41;96137.44;5056464;28;20417;-70
2024/01/02 08:33:22;;;;;;;1.83;0.70;;;;;;;10.76;63.44;96131.75;5057174;28;20187;-70
2024/01/02 08:35:48;;;;;;;0.97;0.60;;;;;;;10.93;62.85;96123.72;5066999;28;20571;-70
2024/01/02 08:38:13;;;;;;;2.40;0.80;;;;;;;10.88;63.10;96119.84;5041505;28;20211;-71
2024/01/02 08:40:39;;;;;;;0.80;0.60;;;;;;;10.95;62.77;96127.00;5045481;28;20186;-71
2024/01/02 08:43:04;;;;;;;0.90;0.53;;;;;;;10.96;62.89;96126.81;5059523;28;20337;-71
2024/01/02 08:45:29;;;;;;;1.23;0.60;;;;;;;11.05;62.66;96125.72;5067596;28;20224;-71
2024/01/02 08:47:55;;;;;;;2.47;0.70;;;;;;;11.10;62.57;96122.53;5049071;28;20209;-71
2024/01/02 08:50:20;;;;;;;1.03;0.60;;;;;;;10.98;62.87;96114.34;5064977;28;20720;-71
2024/01/02 08:52:47;;;;;;;0.83;0.60;;;;;;;11.15;62.39;96116.78;5053910;28;20191;-71
2024/01/02 08:55:14;;;;;;;1.67;0.70;;;;;;;11.33;61.88;96129.50;5059472;28;20220;-70
2024/01/02 08:57:39;;;;;;;0.90;0.60;;;;;;;11.31;61.80;96134.09;5053462;28;20487;-70
2024/01/02 09:00:07;;;;;;;1.10;0.50;;;;;;;11.36;61.67;96124.69;5066223;28;20429;-70
2024/01/02 09:02:33;;;;;;;0.90;0.60;;;;;;;11.37;61.49;96144.69;5043173;28;20206;-71
2024/01/02 09:04:58;;;;;;;1.57;1.00;;;;;;;11.21;61.64;96126.50;5052404;28;20461;-70
2024/01/02 09:07:24;;;;;;;1.17;0.60;;;;;;;11.49;61.25;96138.97;5061240;28;20451;-71
2024/01/02 09:09:49;;;;;;;1.10;0.60;;;;;;;11.31;61.68;96132.28;5057899;28;20195;-71
2024/01/02 09:12:15;;;;;;;0.90;0.60;;;;;;;11.33;61.62;96125.06;5065232;28;20573;-69
2024/01/02 09:14:40;;;;;;;0.80;0.60;;;;;;;11.15;61.85;96151.66;5061269;28;20656;-70
2024/01/02 09:17:05;;;;;;;0.70;0.50;;;;;;;11.56;60.80;96128.53;5055947;28;20214;-71
2024/01/02 09:19:32;;;;;;;0.90;0.60;;;;;;;11.51;60.94;96137.78;5056346;28;20317;-71
2024/01/02 09:21:58;;;;;;;0.80;0.57;;;;;;;11.63;60.70;96147.78;5061014;28;20524;-71
2024/01/02 09:24:23;;;;;;;0.90;0.70;;;;;;;11.67;60.22;96131.47;5058854;28;20276;-70
2024/01/02 09:26:51;;;;;;;0.90;0.60;;;;;;;11.42;60.70;96154.63;5040314;28;20248;-70
2024/01/02 09:29:17;;;;;;;0.90;0.63;;;;;;;11.59;60.56;96133.44;5042222;28;20285;-71
2024/01/02 09:31:43;;;;;;;1.40;0.60;;;;;;;11.68;60.25;96153.31;5071884;28;20423;-71
2024/01/02 09:34:10;;;;;;;2.60;0.50;;;;;;;11.71;60.25;96128.50;5017864;28;20437;-70
2024/01/02 09:36:35;;;;;;;1.10;0.70;;;;;;;11.79;60.10;96152.00;5053461;28;20201;-70
2024/01/02 09:39:01;;;;;;;0.80;0.50;;;;;;;11.44;60.67;96115.06;5044217;28;20563;-71
2024/01/02 09:41:37;;;;;;;1.00;0.60;;;;;;;11.63;60.18;96150.41;5076728;28;20276;-70
2024/01/02 09:44:24;;;;;;;0.70;0.50;;;;;;;11.72;60.29;96159.78;5058070;28;20860;-70
2024/01/02 09:47:12;;;;;;;0.83;0.53;;;;;;;11.86;59.81;96144.19;5060741;28;20839;-70
2024/01/02 09:50:03;;;;;;;1.27;0.57;;;;;;;11.73;59.78;96148.31;5042212;28;20533;-72
2024/01/02 09:52:46;;;;;;;1.10;0.60;;;;;;;11.68;60.06;96153.31;5067995;28;20425;-70
2024/01/02 09:55:30;;;;;;;0.80;0.60;;;;;;;11.68;60.10;96132.31;5045122;28;20460;-70
2024/01/02 09:58:04;;;;;;;0.90;0.60;;;;;;;11.77;59.89;96146.16;5028313;28;20546;-70
2024/01/02 10:01:15;;;;;;;0.73;0.50;;;;;;;12.02;59.22;96138.75;5053063;28;20517;-71
2024/01/02 10:03:46;;;;;;;1.43;0.60;;;;;;;11.61;60.47;96139.28;5050078;28;20922;-71
2024/01/02 10:06:42;;;;;;;0.93;0.50;;;;;;;11.98;59.12;96142.72;5041566;28;20432;-70
2024/01/02 10:09:22;;;;;;;0.80;0.60;;;;;;;12.22;58.53;96143.38;5066947;28;20848;-70
2024/01/02 10:12:00;;;;;;;0.83;0.60;;;;;;;12.14;59.04;96147.75;5066358;28;20419;-70
2024/01/02 10:14:31;;;;;;;0.90;0.57;;;;;;;12.19;58.78;96143.75;5073031;28;20420;-70
2024/01/02 10:17:05;;;;;;;1.27;0.60;;;;;;;12.40;58.34;96154.22;5040571;28;20455;-71
2024/01/02 10:19:41;;;;;;;0.80;0.60;;;;;;;12.53;57.84;96144.84;5069184;28;20460;-70
2024/01/02 10:22:16;;;;;;;0.77;0.50;;;;;;;12.54;58.19;96144.63;5039880;28;20433;-71
2024/01/02 10:24:44;;;;;;;0.80;0.50;;;;;;;12.43;58.35;96147.78;5045142;28;20439;-71
2024/01/02 10:27:12;;;;;;;0.80;0.50;;;;;;;12.20;58.79;96167.19;5020735;28;20461;-72
2024/01/02 10:30:06;;;;;;;0.80;0.50;;;;;;;12.23;58.72;96137.94;5059315;28;20413;-70
2024/01/02 10:32:47;;;;;;;1.20;0.90;;;;;;;12.44;58.01;96126.59;5064015;28;20430;-71
2024/01/02 10:35:35;;;;;;;1.57;0.50;;;;;;;12.35;58.47;96119.81;5056782;28;20473;-70
2024/01/02 10:38:08;;;;;;;0.80;0.50;;;;;;;12.51;58.44;96115.28;5049583;28;20471;-71
2024/01/02 10:40:38;;;;;;;0.90;0.50;;;;;;;12.43;58.21;96119.69;5045503;28;20520;-72
2024/01/02 10:43:22;;;;;;;0.90;0.70;;;;;;;12.47;58.65;96117.50;5044863;28;20962;-70
2024/01/02 10:45:51;;;;;;;0.80;0.50;;;;;;;12.62;57.94;96127.91;5066525;28;20471;-71
2024/01/02 10:49:05;;;;;;;1.77;1.10;;;;;;;12.50;58.20;96108.41;5043273;28;20460;-71
2024/01/02 10:51:41;;;;;;;0.80;0.57;;;;;;;12.43;58.98;96098.69;5053998;28;20429;-70
2024/01/02 10:54:19;;;;;;;1.37;0.60;;;;;;;12.56;58.44;96105.03;5059304;28;20436;-70
2024/01/02 10:56:51;;;;;;;2.87;0.57;;;;;;;12.54;58.17;96096.53;5051298;28;20442;-71
2024/01/02 10:59:30;;;;;;;1.30;0.60;;;;;;;12.63;58.37;96102.44;5065214;28;20461;-70
2024/01/02 11:02:10;;;;;;;1.10;0.50;;;;;;;12.67;57.76;96077.38;5049724;28;20482;-71
2024/01/02 11:04:51;;;;;;;0.80;0.50;;;;;;;12.56;58.42;96097.94;5067606;28;20506;-71
2024/01/02 11:07:18;;;;;;;1.03;0.60;;;;;;;12.59;58.21;96092.31;5053607;28;20458;-70
2024/01/02 11:09:55;;;;;;;0.80;0.60;;;;;;;12.81;57.78;96099.31;5076476;28;20431;-70
2024/01/02 11:12:22;;;;;;;1.30;0.50;;;;;;;12.52;58.23;96095.91;5046175;28;21071;-70
2024/01/02 11:14:49;;;;;;;1.73;0.83;;;;;;;12.63;58.28;96095.38;5063227;28;20508;-71
2024/01/02 11:17:15;;;;;;;0.80;0.63;;;;;;;12.68;57.80;96098.25;5046010;28;20461;-70
2024/01/02 11:19:47;;;;;;;0.90;0.60;;;;;;;12.74;57.63;96089.56;5048469;28;24082;-70
2024/01/02 11:22:49;;;;;;;0.90;0.60;;;;;;;13.05;56.92;96069.91;5069579;28;20435;-71
2024/01/02 11:25:16;;;;;;;1.17;0.70;;;;;;;13.28;56.43;96071.44;5049730;28;20465;-71
2024/01/02 11:27:43;;;;;;;1.00;0.70;;;;;;;13.28;56.52;96060.91;5039464;28;20452;-72
2024/01/02 11:30:10;;;;;;;1.37;0.60;;;;;;;13.10;56.26;96058.81;5053349;28;20565;-70
2024/01/02 11:32:56;;;;;;;1.40;1.00;;;;;;;13.24;56.18;96051.75;5068930;28;20441;-71
2024/01/02 11:35:21;;;;;;;1.33;0.63;;;;;;;13.12;56.20;96064.69;5052385;28;20523;-71
2024/01/02 11:38:07;;;;;;;0.80;0.50;;;;;;;13.16;56.42;96044.06;5062045;28;20466;-70